Time;durP1;ratioP1;P1;durP2;ratioP2;P2;SDS_P1;SDS_P2;PMS_P1;PMS_P2;Temp;Humidity;BMP_temperature;BMP_pressure;BME280_temperature;BME280_humidity;BME280_pressure;Samples;Min_cycle;Max_cycle;Signal;HPM_P1;HPM_P2
2023/10/23 00:01:35;;;;;;;12.60;8.15;;;;;;;;;;4974353;28;20046;-73
2023/10/23 00:04:01;;;;;;;11.30;5.93;;;;;;;;;;4974402;28;20369;-74
2023/10/23 00:06:26;;;;;;;4.18;3.40;;;;;;;;;;4974227;28;20110;-74
2023/10/23 00:08:52;;;;;;;6.30;3.60;;;;;;;;;;4972921;28;20026;-74
2023/10/23 00:11:28;;;;;;;5.00;3.10;;;;;;;;;;4974033;28;20419;-74
2023/10/23 00:13:54;;;;;;;7.28;3.50;;;;;;;;;;4984280;28;20041;-73
2023/10/23 00:16:20;;;;;;;6.63;3.65;;;;;;;;;;4994860;28;20030;-73
2023/10/23 00:18:46;;;;;;;8.73;3.33;;;;;;;;;;4975644;28;20022;-72
2023/10/23 00:21:12;;;;;;;5.57;3.60;;;;;;;;;;4974453;28;20086;-74
2023/10/23 00:23:38;;;;;;;7.45;3.38;;;;;;;;;;4974283;28;20019;-73
2023/10/23 00:26:05;;;;;;;4.90;3.50;;;;;;;;;;4974188;28;20019;-73
2023/10/23 00:28:31;;;;;;;4.63;3.30;;;;;;;;;;4974171;28;20054;-73
2023/10/23 00:30:57;;;;;;;4.88;3.63;;;;;;;;;;4974394;28;20388;-73
2023/10/23 00:33:23;;;;;;;3.78;3.35;;;;;;;;;;4973980;28;20031;-74
2023/10/23 00:35:48;;;;;;;6.85;4.72;;;;;;;;;;4974115;28;20062;-74
2023/10/23 00:38:14;;;;;;;4.45;3.08;;;;;;;;;;4973818;28;20029;-73
2023/10/23 00:40:39;;;;;;;4.13;3.28;;;;;;;;;;4974131;28;20027;-74
2023/10/23 00:43:12;;;;;;;3.85;3.25;;;;;;;;;;4974356;28;20050;-73
2023/10/23 00:45:50;;;;;;;7.57;3.60;;;;;;;;;;4973917;28;20023;-73
2023/10/23 00:48:20;;;;;;;4.60;3.17;;;;;;;;;;4974083;28;20022;-73
2023/10/23 00:50:47;;;;;;;4.88;3.30;;;;;;;;;;4973873;28;20387;-72
2023/10/23 00:53:12;;;;;;;4.45;3.58;;;;;;;;;;4974056;28;20042;-72
2023/10/23 00:55:39;;;;;;;4.75;2.92;;;;;;;;;;4974695;28;20038;-72
2023/10/23 00:58:05;;;;;;;6.80;3.67;;;;;;;;;;4974171;28;20025;-72
2023/10/23 01:00:32;;;;;;;4.05;3.28;;;;;;;;;;4977875;28;20121;-73
2023/10/23 01:02:57;;;;;;;4.65;3.42;;;;;;;;;;4977599;28;20031;-73
2023/10/23 01:05:23;;;;;;;4.75;3.30;;;;;;;;;;4977795;28;20428;-73
2023/10/23 01:07:49;;;;;;;4.57;3.40;;;;;;;;;;4977906;28;20098;-73
2023/10/23 01:10:15;;;;;;;6.18;3.47;;;;;;;;;;4977960;28;20034;-73
2023/10/23 01:12:41;;;;;;;4.60;3.28;;;;;;;;;;4977706;28;20031;-73
2023/10/23 01:15:07;;;;;;;4.78;3.60;;;;;;;;;;4977559;28;20387;-72
2023/10/23 01:17:32;;;;;;;4.30;3.05;;;;;;;;;;4977569;28;20050;-72
2023/10/23 01:19:58;;;;;;;3.95;3.17;;;;;;;;;;4977195;28;20455;-72
2023/10/23 01:22:23;;;;;;;5.18;3.17;;;;;;;;;;4977456;28;20030;-73
2023/10/23 01:24:51;;;;;;;5.20;3.33;;;;;;;;;;4977070;28;20093;-73
2023/10/23 01:27:17;;;;;;;4.68;3.33;;;;;;;;;;4977097;28;20027;-72
2023/10/23 01:29:43;;;;;;;3.72;3.10;;;;;;;;;;4977106;28;20038;-73
2023/10/23 01:32:10;;;;;;;4.18;3.22;;;;;;;;;;4976553;28;20026;-74
2023/10/23 01:34:35;;;;;;;5.75;3.00;;;;;;;;;;4977014;28;20034;-73
2023/10/23 01:37:01;;;;;;;3.78;3.03;;;;;;;;;;4976867;28;20027;-73
2023/10/23 01:39:26;;;;;;;4.53;3.00;;;;;;;;;;4976860;28;20027;-73
2023/10/23 01:41:52;;;;;;;4.53;2.95;;;;;;;;;;4976553;28;20125;-72
2023/10/23 12:00:54;;;;;;;1.70;1.58;;;;;;;;;;5533767;23;20522;-70
2023/10/23 12:03:19;;;;;;;1.95;1.67;;;;;;;;;;4974046;28;20118;-70
2023/10/23 12:05:45;;;;;;;1.63;1.52;;;;;;;;;;4973180;28;20045;-70
2023/10/23 12:08:12;;;;;;;2.20;1.75;;;;;;;;;;4974961;28;20349;-69
2023/10/23 12:10:38;;;;;;;1.60;1.50;;;;;;;;;;4974589;28;20023;-69
2023/10/23 12:13:04;;;;;;;1.58;1.48;;;;;;;;;;4975232;28;20023;-69
2023/10/23 12:15:29;;;;;;;1.45;1.35;;;;;;;;;;4974790;28;20033;-69
2023/10/23 12:18:03;;;;;;;1.75;1.65;;;;;;;;;;4974518;28;20062;-69
2023/10/23 12:20:29;;;;;;;1.65;1.55;;;;;;;;;;4974166;28;20026;-70
2023/10/23 12:22:55;;;;;;;1.70;1.60;;;;;;;;;;4974101;28;20039;-71
2023/10/23 12:25:21;;;;;;;1.95;1.80;;;;;;;;;;4973936;28;20030;-71
2023/10/23 12:27:46;;;;;;;1.73;1.60;;;;;;;;;;4973797;28;20099;-71
2023/10/23 12:30:12;;;;;;;1.63;1.45;;;;;;;;;;4973810;28;20035;-72
2023/10/23 12:32:41;;;;;;;4.00;1.60;;;;;;;;;;4973870;28;20026;-71
2023/10/23 12:35:08;;;;;;;1.67;1.58;;;;;;;;;;4972731;28;20030;-70
2023/10/23 12:37:36;;;;;;;3.50;1.63;;;;;;;;;;4969355;28;20479;-71
2023/10/23 12:40:03;;;;;;;2.53;1.65;;;;;;;;;;4973763;28;20038;-71
2023/10/23 12:42:30;;;;;;;1.60;1.50;;;;;;;;;;4973719;28;20083;-71
2023/10/23 12:44:56;;;;;;;3.65;1.70;;;;;;;;;;4973634;28;20026;-71
2023/10/23 12:47:23;;;;;;;1.67;1.58;;;;;;;;;;4973666;28;20034;-72
2023/10/23 12:49:49;;;;;;;1.70;1.60;;;;;;;;;;4973659;28;20027;-72
2023/10/23 12:52:15;;;;;;;3.15;1.70;;;;;;;;;;4973561;28;20472;-71
2023/10/23 12:54:41;;;;;;;4.00;2.00;;;;;;;;;;4973293;28;20110;-71
2023/10/23 12:57:06;;;;;;;1.70;1.40;;;;;;;;;;4973911;28;20023;-71
2023/10/23 12:59:32;;;;;;;2.10;1.60;;;;;;;;;;4973527;28;20485;-71
2023/10/23 13:01:58;;;;;;;2.97;1.55;;;;;;;;;;4974066;28;20055;-71
2023/10/23 13:04:24;;;;;;;3.10;1.83;;;;;;;;;;4973912;28;20364;-71
2023/10/23 13:06:51;;;;;;;2.22;1.50;;;;;;;;;;4973529;28;20034;-71
2023/10/23 13:09:16;;;;;;;2.50;1.38;;;;;;;;;;4973485;28;20027;-71
2023/10/23 13:11:42;;;;;;;1.35;1.25;;;;;;;;;;4973625;28;20041;-71
2023/10/23 13:14:08;;;;;;;1.40;1.30;;;;;;;;;;4973721;28;20383;-71
2023/10/23 13:16:34;;;;;;;3.50;1.30;;;;;;;;;;4973374;28;20105;-70
2023/10/23 13:18:59;;;;;;;1.98;1.30;;;;;;;;;;4973323;28;20031;-70
2023/10/23 13:21:25;;;;;;;1.30;1.20;;;;;;;;;;4973418;28;20030;-70
2023/10/23 13:23:51;;;;;;;2.22;1.20;;;;;;;;;;4972791;28;20397;-71
2023/10/23 13:26:19;;;;;;;2.08;1.20;;;;;;;;;;4972049;28;20022;-71
2023/10/23 13:28:45;;;;;;;3.78;1.40;;;;;;;;;;4973591;28;20026;-71
2023/10/23 13:31:11;;;;;;;3.20;1.20;;;;;;;;;;4972870;28;20086;-71
2023/10/23 13:33:39;;;;;;;3.45;1.33;;;;;;;;;;4972581;28;20027;-71
2023/10/23 13:36:07;;;;;;;2.05;1.10;;;;;;;;;;4973233;28;20534;-72
2023/10/23 13:38:32;;;;;;;2.92;1.40;;;;;;;;;;4972014;28;20089;-72
2023/10/23 13:40:58;;;;;;;3.65;1.20;;;;;;;;;;4973164;28;20027;-72
2023/10/23 13:43:25;;;;;;;1.40;1.17;;;;;;;;;;4972279;28;20026;-72
2023/10/23 13:45:51;;;;;;;1.55;1.23;;;;;;;;;;4973201;28;20057;-72
2023/10/23 13:48:17;;;;;;;7.15;1.42;;;;;;;;;;4972203;28;20416;-72
2023/10/23 13:50:48;;;;;;;2.85;1.40;;;;;;;;;;4972679;28;20065;-72
2023/10/23 13:53:16;;;;;;;2.28;1.20;;;;;;;;;;4972985;28;20394;-72
2023/10/23 13:55:41;;;;;;;2.10;1.30;;;;;;;;;;4973145;28;20026;-71
2023/10/23 13:58:07;;;;;;;2.88;1.42;;;;;;;;;;4973087;28;20431;-71
2023/10/23 14:00:32;;;;;;;2.25;1.40;;;;;;;;;;4972845;28;20080;-71
2023/10/23 14:02:58;;;;;;;1.42;1.20;;;;;;;;;;4972963;28;20035;-72
2023/10/23 14:05:23;;;;;;;1.88;1.35;;;;;;;;;;4973129;28;20023;-71
2023/10/23 14:07:49;;;;;;;1.42;1.15;;;;;;;;;;4974496;28;20031;-71
2023/10/23 14:10:16;;;;;;;1.65;1.00;;;;;;;;;;4976909;28;20042;-71
2023/10/23 14:12:41;;;;;;;1.52;0.98;;;;;;;;;;4976561;28;20039;-72
2023/10/23 14:15:08;;;;;;;3.28;1.00;;;;;;;;;;4978444;28;20031;-72
2023/10/23 14:17:34;;;;;;;5.32;1.40;;;;;;;;;;4975526;28;20475;-69
2023/10/23 14:19:59;;;;;;;3.80;1.40;;;;;;;;;;4974987;28;20034;-71
2023/10/23 14:22:25;;;;;;;2.33;1.30;;;;;;;;;;4975742;28;20031;-71
2023/10/23 14:24:50;;;;;;;3.58;1.67;;;;;;;;;;4975574;28;20479;-71
2023/10/23 14:27:16;;;;;;;3.88;2.40;;;;;;;;;;4975611;28;20037;-70
2023/10/23 14:29:42;;;;;;;7.38;2.55;;;;;;;;;;4974738;28;20364;-70
2023/10/23 14:32:07;;;;;;;5.95;1.73;;;;;;;;;;4975391;28;20034;-70
2023/10/23 14:34:33;;;;;;;3.47;1.65;;;;;;;;;;4974963;28;20019;-71
2023/10/23 14:36:58;;;;;;;4.28;1.67;;;;;;;;;;4976051;28;20479;-70
2023/10/23 14:39:29;;;;;;;4.10;2.47;;;;;;;;;;4975999;28;20383;-71
2023/10/23 14:41:55;;;;;;;4.80;2.20;;;;;;;;;;4976246;28;20104;-70
2023/10/23 14:44:23;;;;;;;5.97;2.55;;;;;;;;;;4976153;28;20023;-70
2023/10/23 14:46:48;;;;;;;8.25;3.85;;;;;;;;;;4975805;28;20027;-70
2023/10/23 14:49:14;;;;;;;5.60;3.17;;;;;;;;;;4976049;28;20034;-70
2023/10/23 14:51:40;;;;;;;4.28;3.00;;;;;;;;;;4975612;28;20383;-70
2023/10/23 14:54:06;;;;;;;5.97;2.70;;;;;;;;;;4975922;28;20030;-70
2023/10/23 14:56:31;;;;;;;6.28;3.50;;;;;;;;;;4975670;28;20583;-70
2023/10/23 14:58:57;;;;;;;3.97;3.05;;;;;;;;;;4975632;28;20035;-70
2023/10/23 15:01:22;;;;;;;3.95;3.53;;;;;;;;;;4974955;28;20121;-70
2023/10/23 15:03:48;;;;;;;5.88;3.42;;;;;;;;;;4975127;28;20061;-70
2023/10/23 15:06:14;;;;;;;4.38;3.60;;;;;;;;;;4975725;28;20023;-70
2023/10/23 15:08:41;;;;;;;4.82;3.13;;;;;;;;;;4975420;28;20506;-70
2023/10/23 15:11:11;;;;;;;4.60;3.35;;;;;;;;;;4975223;28;20031;-70
2023/10/23 15:13:37;;;;;;;5.75;3.20;;;;;;;;;;4975373;28;20023;-70
2023/10/23 15:16:03;;;;;;;7.00;3.33;;;;;;;;;;4973918;28;20053;-69
2023/10/23 15:18:30;;;;;;;6.78;3.60;;;;;;;;;;4974829;28;20023;-70
2023/10/23 15:21:03;;;;;;;6.45;3.75;;;;;;;;;;4975245;28;20277;-70
2023/10/23 15:23:29;;;;;;;3.35;2.60;;;;;;;;;;4975174;28;20069;-70
2023/10/23 15:25:55;;;;;;;3.95;2.67;;;;;;;;;;4975352;28;20447;-70
2023/10/23 15:28:22;;;;;;;4.35;3.00;;;;;;;;;;4975285;28;20065;-69
2023/10/23 15:30:54;;;;;;;5.32;2.80;;;;;;;;;;4974884;28;20039;-70
2023/10/23 15:33:24;;;;;;;4.03;2.80;;;;;;;;;;4974968;28;20177;-70
2023/10/23 15:35:56;;;;;;;4.22;2.70;;;;;;;;;;4975219;28;20035;-70
2023/10/23 15:38:26;;;;;;;5.68;3.00;;;;;;;;;;4975157;28;20433;-70
2023/10/23 15:40:53;;;;;;;5.82;3.00;;;;;;;;;;4975109;28;20050;-70
2023/10/23 15:43:22;;;;;;;7.72;3.10;;;;;;;;;;4974765;28;20023;-69
2023/10/23 15:45:51;;;;;;;3.10;2.70;;;;;;;;;;4974990;28;20390;-70
2023/10/23 15:48:19;;;;;;;5.22;3.05;;;;;;;;;;4974691;28;20150;-70
2023/10/23 15:50:45;;;;;;;5.53;2.70;;;;;;;;;;4974534;28;20125;-69
2023/10/23 15:53:10;;;;;;;2.90;2.55;;;;;;;;;;4974624;28;20110;-69
2023/10/23 15:55:36;;;;;;;3.00;2.70;;;;;;;;;;4974613;28;20110;-70
2023/10/23 15:58:03;;;;;;;3.50;2.72;;;;;;;;;;4974483;28;20075;-70
2023/10/23 16:00:29;;;;;;;3.03;2.38;;;;;;;;;;4974280;28;20102;-70
2023/10/23 16:02:55;;;;;;;3.83;2.72;;;;;;;;;;4974430;28;20066;-70
2023/10/23 16:05:21;;;;;;;4.78;2.70;;;;;;;;;;4974401;28;20494;-70
2023/10/23 16:07:47;;;;;;;3.85;2.47;;;;;;;;;;4974598;28;20027;-70
2023/10/23 16:10:13;;;;;;;4.00;2.60;;;;;;;;;;4974397;28;20484;-70
2023/10/23 16:12:42;;;;;;;5.22;2.80;;;;;;;;;;4974511;28;20118;-69
2023/10/23 16:15:20;;;;;;;3.47;2.60;;;;;;;;;;4974157;28;20027;-69
2023/10/23 16:17:46;;;;;;;3.20;2.72;;;;;;;;;;4974168;28;20050;-70
2023/10/23 16:20:12;;;;;;;3.58;2.53;;;;;;;;;;4974393;28;20039;-70
2023/10/23 16:22:39;;;;;;;3.63;2.92;;;;;;;;;;4974073;28;20035;-70
2023/10/23 16:25:06;;;;;;;2.90;2.60;;;;;;;;;;4974093;28;20472;-70
2023/10/23 16:27:35;;;;;;;3.03;2.60;;;;;;;;;;4974004;28;20035;-70
2023/10/23 16:30:06;;;;;;;3.83;2.53;;;;;;;;;;4973330;28;20385;-70
2023/10/23 16:32:32;;;;;;;3.38;2.40;;;;;;;;;;4973843;28;20041;-70
2023/10/23 16:34:58;;;;;;;4.50;3.08;;;;;;;;;;4973883;28;20061;-70
2023/10/23 16:37:27;;;;;;;3.28;2.42;;;;;;;;;;4974155;28;20018;-70
2023/10/23 16:39:53;;;;;;;3.55;2.67;;;;;;;;;;4974127;28;20065;-70
2023/10/23 16:42:18;;;;;;;3.30;2.60;;;;;;;;;;4974097;28;20022;-70
2023/10/23 16:44:44;;;;;;;4.63;2.80;;;;;;;;;;4974617;28;20468;-75
2023/10/23 16:47:12;;;;;;;7.75;2.90;;;;;;;;;;4978972;28;20066;-72
2023/10/23 16:49:41;;;;;;;7.80;2.40;;;;;;;;;;4976769;28;20118;-73
2023/10/23 16:52:07;;;;;;;3.00;2.53;;;;;;;;;;4978539;28;20508;-73
2023/10/23 16:54:32;;;;;;;3.95;2.55;;;;;;;;;;4977355;28;20042;-73
2023/10/23 16:56:58;;;;;;;3.03;2.72;;;;;;;;;;4977690;28;20059;-71
2023/10/23 16:59:23;;;;;;;2.75;2.30;;;;;;;;;;4973617;28;20549;-69
2023/10/23 17:01:49;;;;;;;6.38;2.47;;;;;;;;;;4973392;28;20162;-70
2023/10/23 17:04:14;;;;;;;6.35;3.47;;;;;;;;;;4973548;28;20031;-72
2023/10/23 17:06:40;;;;;;;6.18;2.60;;;;;;;;;;4973777;28;20027;-71
2023/10/23 17:09:06;;;;;;;6.80;2.70;;;;;;;;;;4973648;28;20472;-71
2023/10/23 17:11:31;;;;;;;4.15;2.70;;;;;;;;;;4973659;28;20066;-70
2023/10/23 17:13:57;;;;;;;10.88;3.53;;;;;;;;;;4973730;28;20089;-70
2023/10/23 17:16:23;;;;;;;7.93;3.35;;;;;;;;;;4973454;28;20031;-73
2023/10/23 17:18:48;;;;;;;5.90;3.15;;;;;;;;;;4968812;28;20027;-72
2023/10/23 17:21:15;;;;;;;5.82;3.05;;;;;;;;;;4973437;28;20031;-72
2023/10/23 17:23:40;;;;;;;6.20;3.28;;;;;;;;;;4973667;28;20073;-70
2023/10/23 17:26:06;;;;;;;8.88;2.70;;;;;;;;;;4973247;28;20035;-72
2023/10/23 17:28:32;;;;;;;3.88;3.10;;;;;;;;;;4973283;28;20029;-73
2023/10/23 17:31:03;;;;;;;9.25;3.60;;;;;;;;;;4973528;28;20058;-72
2023/10/23 17:33:30;;;;;;;9.25;3.20;;;;;;;;;;4973225;28;20095;-71
2023/10/23 17:35:56;;;;;;;9.13;3.60;;;;;;;;;;4973250;28;20042;-72
2023/10/23 17:38:22;;;;;;;8.77;3.92;;;;;;;;;;4973218;28;20438;-74
2023/10/23 17:40:48;;;;;;;4.65;3.42;;;;;;;;;;4974541;28;20066;-69
2023/10/23 17:43:15;;;;;;;5.65;3.17;;;;;;;;;;4976936;28;20472;-71
2023/10/23 17:45:40;;;;;;;6.00;3.40;;;;;;;;;;4976837;28;20034;-72
2023/10/23 17:48:06;;;;;;;7.97;3.58;;;;;;;;;;4977004;28;20027;-68
2023/10/23 17:50:33;;;;;;;9.90;3.88;;;;;;;;;;4976875;28;20038;-70
2023/10/23 17:52:59;;;;;;;10.10;3.40;;;;;;;;;;4976592;28;20106;-70
2023/10/23 17:55:24;;;;;;;7.85;3.40;;;;;;;;;;4976807;28;20030;-69
2023/10/23 17:57:50;;;;;;;7.82;3.72;;;;;;;;;;4976853;28;20522;-70
2023/10/23 18:00:16;;;;;;;6.05;3.25;;;;;;;;;;4976260;28;20042;-71
2023/10/23 18:02:43;;;;;;;5.43;3.25;;;;;;;;;;4976426;28;20045;-70
2023/10/23 18:05:11;;;;;;;5.68;3.35;;;;;;;;;;4976772;28;20534;-72
2023/10/23 18:07:37;;;;;;;9.50;3.67;;;;;;;;;;4976044;28;20447;-72
2023/10/23 18:10:04;;;;;;;5.90;3.42;;;;;;;;;;4975834;28;20062;-71
2023/10/23 18:12:30;;;;;;;7.25;2.78;;;;;;;;;;4975555;28;20054;-69
2023/10/23 18:14:55;;;;;;;3.22;2.58;;;;;;;;;;4975733;28;20031;-71
2023/10/23 18:17:21;;;;;;;7.65;3.13;;;;;;;;;;4974616;28;20023;-71
2023/10/23 18:19:47;;;;;;;8.00;3.00;;;;;;;;;;4975700;28;20106;-71
2023/10/23 18:22:13;;;;;;;7.43;3.10;;;;;;;;;;4975787;28;20065;-71
2023/10/23 18:24:39;;;;;;;8.88;3.13;;;;;;;;;;4975820;28;20046;-72
2023/10/23 18:27:05;;;;;;;5.70;3.10;;;;;;;;;;4976110;28;20031;-71
2023/10/23 18:29:34;;;;;;;4.22;3.03;;;;;;;;;;4976305;28;20035;-70
2023/10/23 18:32:00;;;;;;;6.00;3.25;;;;;;;;;;4976251;28;20082;-71
2023/10/23 18:34:25;;;;;;;2.95;2.55;;;;;;;;;;4976086;28;20026;-71
2023/10/23 18:36:51;;;;;;;5.85;2.80;;;;;;;;;;4975922;28;20027;-70
2023/10/23 18:39:16;;;;;;;4.53;2.80;;;;;;;;;;4975944;28;20029;-72
2023/10/23 18:41:42;;;;;;;4.45;2.65;;;;;;;;;;4975936;28;20360;-71
2023/10/23 18:44:08;;;;;;;6.15;3.28;;;;;;;;;;4975813;28;20025;-71
2023/10/23 18:46:33;;;;;;;3.58;2.50;;;;;;;;;;4975752;28;20506;-71
2023/10/23 18:48:59;;;;;;;3.55;2.58;;;;;;;;;;4975261;28;20031;-71
2023/10/23 18:51:25;;;;;;;5.75;3.10;;;;;;;;;;4975034;28;20023;-71
2023/10/23 18:53:50;;;;;;;4.57;3.17;;;;;;;;;;4975077;28;20033;-71
2023/10/23 18:56:16;;;;;;;6.35;3.20;;;;;;;;;;4975576;28;20166;-70
2023/10/23 18:58:41;;;;;;;5.10;3.40;;;;;;;;;;4975762;28;20023;-70
2023/10/23 19:01:07;;;;;;;6.40;3.60;;;;;;;;;;4975461;28;20042;-70
2023/10/23 19:03:33;;;;;;;6.65;3.38;;;;;;;;;;4975497;28;20494;-71
2023/10/23 19:05:58;;;;;;;3.45;2.58;;;;;;;;;;4974059;28;20035;-72
2023/10/23 19:08:27;;;;;;;6.03;3.40;;;;;;;;;;4975390;28;20027;-70
2023/10/23 19:10:53;;;;;;;5.72;3.33;;;;;;;;;;4975249;28;20030;-71
2023/10/23 19:13:19;;;;;;;7.70;3.15;;;;;;;;;;4975487;28;20027;-72
2023/10/23 19:15:45;;;;;;;7.95;2.90;;;;;;;;;;4974026;28;20030;-70
2023/10/23 19:18:10;;;;;;;6.50;2.75;;;;;;;;;;4975123;28;20554;-70
2023/10/23 19:20:36;;;;;;;5.63;3.10;;;;;;;;;;4975136;28;20035;-70
2023/10/23 19:23:05;;;;;;;4.55;3.13;;;;;;;;;;4975188;28;20038;-71
2023/10/23 19:25:33;;;;;;;6.40;3.05;;;;;;;;;;4975284;28;20057;-71
2023/10/23 19:27:59;;;;;;;5.35;3.13;;;;;;;;;;4974991;28;20086;-72
2023/10/23 19:30:24;;;;;;;4.22;3.00;;;;;;;;;;4975271;28;20027;-72
2023/10/23 19:32:51;;;;;;;4.85;2.90;;;;;;;;;;4975058;28;20035;-70
2023/10/23 19:35:17;;;;;;;4.97;3.20;;;;;;;;;;4974925;28;20027;-72
2023/10/23 19:37:42;;;;;;;5.30;2.90;;;;;;;;;;4974841;28;20026;-69
2023/10/23 19:40:09;;;;;;;4.63;3.30;;;;;;;;;;4974959;28;20019;-72
2023/10/23 19:42:40;;;;;;;6.03;3.30;;;;;;;;;;4974739;28;20034;-68
2023/10/23 19:45:07;;;;;;;6.35;3.63;;;;;;;;;;4974047;28;20544;-71
2023/10/23 19:47:33;;;;;;;5.80;3.38;;;;;;;;;;4973863;28;20039;-74
2023/10/23 19:49:59;;;;;;;5.65;3.20;;;;;;;;;;4974488;28;20097;-73
2023/10/23 19:52:26;;;;;;;4.78;3.30;;;;;;;;;;4974550;28;20538;-71
2023/10/23 19:54:54;;;;;;;6.07;3.10;;;;;;;;;;4974796;28;20038;-72
2023/10/23 19:57:20;;;;;;;4.53;2.83;;;;;;;;;;4974442;28;20070;-73
2023/10/23 19:59:46;;;;;;;6.63;3.13;;;;;;;;;;4974570;28;20058;-70
2023/10/23 20:02:11;;;;;;;7.03;3.20;;;;;;;;;;4974613;28;20027;-71
2023/10/23 20:04:37;;;;;;;5.35;3.15;;;;;;;;;;4974407;28;20109;-70
2023/10/23 20:07:03;;;;;;;5.93;3.35;;;;;;;;;;4973008;28;20038;-70
2023/10/23 20:09:29;;;;;;;5.07;3.00;;;;;;;;;;4974164;28;20439;-71
2023/10/23 20:11:54;;;;;;;7.00;3.35;;;;;;;;;;4974084;28;20027;-72
2023/10/23 20:14:20;;;;;;;8.35;3.25;;;;;;;;;;4974186;28;20089;-72
2023/10/23 20:16:46;;;;;;;6.22;3.13;;;;;;;;;;4974383;28;20027;-70
2023/10/23 20:19:12;;;;;;;3.90;3.08;;;;;;;;;;4974080;28;20404;-70
2023/10/23 20:21:39;;;;;;;5.20;2.90;;;;;;;;;;4974128;28;20035;-72
2023/10/23 20:24:05;;;;;;;5.63;2.92;;;;;;;;;;4973910;28;20065;-72
2023/10/23 20:26:30;;;;;;;5.03;2.83;;;;;;;;;;4974023;28;20078;-74
2023/10/23 20:28:56;;;;;;;7.65;3.15;;;;;;;;;;4973981;28;20057;-73
2023/10/23 20:31:22;;;;;;;4.70;2.88;;;;;;;;;;4973835;28;20027;-72
2023/10/23 20:33:50;;;;;;;4.75;3.13;;;;;;;;;;4974014;28;20489;-72
2023/10/23 20:36:18;;;;;;;3.55;2.75;;;;;;;;;;4973854;28;20019;-73
2023/10/23 20:38:44;;;;;;;9.07;3.30;;;;;;;;;;4974071;28;20049;-71
2023/10/23 20:41:18;;;;;;;5.22;3.10;;;;;;;;;;4973680;28;20025;-72
2023/10/23 20:43:44;;;;;;;4.05;2.90;;;;;;;;;;4973668;28;20038;-73
2023/10/23 20:46:11;;;;;;;6.13;3.10;;;;;;;;;;4973637;28;20492;-73
2023/10/23 20:48:36;;;;;;;4.43;3.17;;;;;;;;;;4972457;28;20081;-73
2023/10/23 20:51:06;;;;;;;4.32;3.00;;;;;;;;;;4973598;28;20034;-70
2023/10/23 20:53:31;;;;;;;3.95;2.90;;;;;;;;;;4973656;28;20035;-71
2023/10/23 20:55:58;;;;;;;4.82;3.10;;;;;;;;;;4973925;28;20031;-71
2023/10/23 20:58:24;;;;;;;4.53;3.00;;;;;;;;;;4973583;28;20030;-70
2023/10/23 21:00:50;;;;;;;7.72;3.40;;;;;;;;;;4973428;28;20043;-74
2023/10/23 21:03:16;;;;;;;5.32;3.00;;;;;;;;;;4971644;28;20467;-71
2023/10/23 21:05:42;;;;;;;3.55;2.70;;;;;;;;;;4975489;28;20105;-70
2023/10/23 21:08:07;;;;;;;5.28;3.13;;;;;;;;;;4973796;28;20034;-69
2023/10/23 21:10:33;;;;;;;5.65;2.83;;;;;;;;;;4973807;28;20038;-71
2023/10/23 21:12:59;;;;;;;5.90;3.20;;;;;;;;;;4973356;28;20446;-70
2023/10/23 21:15:24;;;;;;;3.50;2.80;;;;;;;;;;4974423;28;20023;-71
2023/10/23 21:17:50;;;;;;;4.68;3.00;;;;;;;;;;4977428;28;20023;-69
2023/10/23 21:20:15;;;;;;;4.78;3.03;;;;;;;;;;4977383;28;20065;-73
2023/10/23 21:22:41;;;;;;;6.47;3.17;;;;;;;;;;4977642;28;20029;-72
2023/10/23 21:25:07;;;;;;;5.72;3.15;;;;;;;;;;4977360;28;20378;-73
2023/10/23 21:27:32;;;;;;;4.68;3.13;;;;;;;;;;4977497;28;20050;-72
2023/10/23 21:29:58;;;;;;;4.72;3.03;;;;;;;;;;4977564;28;20435;-72
2023/10/23 21:32:24;;;;;;;5.72;3.08;;;;;;;;;;4977129;28;20026;-72
2023/10/23 21:34:49;;;;;;;3.92;2.97;;;;;;;;;;4977126;28;20031;-72
2023/10/23 21:37:15;;;;;;;4.88;2.53;;;;;;;;;;4977320;28;20054;-73
2023/10/23 21:39:41;;;;;;;4.22;2.83;;;;;;;;;;4976497;28;20482;-72
2023/10/23 21:42:08;;;;;;;3.75;2.70;;;;;;;;;;4977048;28;20070;-71
2023/10/23 21:44:34;;;;;;;4.75;2.90;;;;;;;;;;4976899;28;20030;-72
2023/10/23 21:47:00;;;;;;;6.93;3.08;;;;;;;;;;4977231;28;20447;-73
2023/10/23 21:49:25;;;;;;;4.25;3.08;;;;;;;;;;4976775;28;20073;-72
2023/10/23 21:51:51;;;;;;;4.38;2.58;;;;;;;;;;4976787;28;20058;-74
2023/10/23 21:54:17;;;;;;;4.70;3.15;;;;;;;;;;4976961;28;20019;-73
2023/10/23 21:56:43;;;;;;;3.47;2.63;;;;;;;;;;4974708;28;20034;-70
2023/10/23 21:59:09;;;;;;;6.50;3.00;;;;;;;;;;4975945;28;20472;-72
2023/10/23 22:01:35;;;;;;;4.38;3.00;;;;;;;;;;4975993;28;20051;-73
2023/10/23 22:04:01;;;;;;;4.50;3.10;;;;;;;;;;4976292;28;20088;-70
2023/10/23 22:06:27;;;;;;;3.75;2.80;;;;;;;;;;4976237;28;20026;-71
2023/10/23 22:08:52;;;;;;;6.03;3.38;;;;;;;;;;4975901;28;20190;-71
2023/10/23 22:11:19;;;;;;;4.38;3.00;;;;;;;;;;4976273;28;20073;-71
2023/10/23 22:13:45;;;;;;;5.93;2.80;;;;;;;;;;4975708;28;20038;-71
2023/10/23 22:16:10;;;;;;;5.03;2.88;;;;;;;;;;4976326;28;20031;-73
2023/10/23 22:18:36;;;;;;;5.35;2.90;;;;;;;;;;4976368;28;20069;-73
2023/10/23 22:21:02;;;;;;;4.80;3.20;;;;;;;;;;4975785;28;20069;-73
2023/10/23 22:23:28;;;;;;;3.53;2.85;;;;;;;;;;4975757;28;20412;-72
2023/10/23 22:25:53;;;;;;;3.75;2.72;;;;;;;;;;4975666;28;20019;-70
2023/10/23 22:28:19;;;;;;;5.38;3.10;;;;;;;;;;4974359;28;20038;-72
2023/10/23 22:30:45;;;;;;;4.32;2.75;;;;;;;;;;4975471;28;20051;-73
2023/10/23 22:33:11;;;;;;;3.70;2.72;;;;;;;;;;4975611;28;20023;-72
2023/10/23 22:35:38;;;;;;;3.65;2.60;;;;;;;;;;4976037;28;20436;-76
2023/10/23 22:38:04;;;;;;;5.15;3.10;;;;;;;;;;4975153;28;20101;-71
2023/10/23 22:40:29;;;;;;;4.15;2.85;;;;;;;;;;4975498;28;20033;-72
2023/10/23 22:42:55;;;;;;;4.97;2.78;;;;;;;;;;4975323;28;20456;-73
2023/10/23 22:45:22;;;;;;;4.95;3.25;;;;;;;;;;4975623;28;20034;-72
2023/10/23 22:47:48;;;;;;;4.68;3.35;;;;;;;;;;4975237;28;20125;-72
2023/10/23 22:50:14;;;;;;;4.88;2.72;;;;;;;;;;4975276;28;20029;-70
2023/10/23 22:52:40;;;;;;;4.40;2.80;;;;;;;;;;4975189;28;20654;-73
2023/10/23 22:55:07;;;;;;;3.97;2.75;;;;;;;;;;4975580;28;20073;-71
2023/10/23 22:57:38;;;;;;;5.82;2.65;;;;;;;;;;4974494;28;20478;-71
2023/10/23 23:00:11;;;;;;;4.00;2.95;;;;;;;;;;4973869;28;20518;-70
2023/10/23 23:02:38;;;;;;;5.18;2.85;;;;;;;;;;4973640;28;20130;-71
2023/10/23 23:05:04;;;;;;;5.07;2.80;;;;;;;;;;4973632;28;20035;-71
2023/10/23 23:07:35;;;;;;;4.65;2.88;;;;;;;;;;4974888;28;20038;-71
2023/10/23 23:10:06;;;;;;;3.30;2.80;;;;;;;;;;4975404;28;20031;-68
2023/10/23 23:12:32;;;;;;;4.65;3.28;;;;;;;;;;4974924;28;20646;-71
2023/10/23 23:14:58;;;;;;;3.85;2.67;;;;;;;;;;4954782;29;20024;-71
2023/10/23 23:17:28;;;;;;;4.43;2.85;;;;;;;;;;4955689;28;20657;-71
2023/10/23 23:19:56;;;;;;;4.85;2.72;;;;;;;;;;4956275;28;20031;-67
2023/10/23 23:22:21;;;;;;;6.05;2.65;;;;;;;;;;4956239;28;20428;-70
2023/10/23 23:24:47;;;;;;;5.18;2.70;;;;;;;;;;4955893;28;20107;-72
2023/10/23 23:27:12;;;;;;;4.40;2.65;;;;;;;;;;4955853;28;20495;-70
2023/10/23 23:29:38;;;;;;;6.25;2.97;;;;;;;;;;4963906;28;20047;-72
2023/10/23 23:32:03;;;;;;;6.25;2.65;;;;;;;;;;4975277;28;20037;-72
2023/10/23 23:34:29;;;;;;;3.97;2.45;;;;;;;;;;4975302;28;20102;-70
2023/10/23 23:36:55;;;;;;;6.60;2.72;;;;;;;;;;4974883;28;20483;-69
2023/10/23 23:39:20;;;;;;;4.88;2.80;;;;;;;;;;4974906;28;20102;-70
2023/10/23 23:41:46;;;;;;;4.78;2.60;;;;;;;;;;4974380;28;20035;-67
2023/10/23 23:44:12;;;;;;;4.78;2.67;;;;;;;;;;4974806;28;20030;-70
2023/10/23 23:46:37;;;;;;;3.67;2.47;;;;;;;;;;4974722;28;20031;-71
2023/10/23 23:49:03;;;;;;;5.28;2.72;;;;;;;;;;4974713;28;20031;-71
2023/10/23 23:51:28;;;;;;;3.85;2.88;;;;;;;;;;4974583;28;20030;-71
2023/10/23 23:53:54;;;;;;;5.28;2.75;;;;;;;;;;4974667;28;20026;-71
2023/10/23 23:56:19;;;;;;;6.03;2.78;;;;;;;;;;4957467;28;20419;-71
2023/10/23 23:58:45;;;;;;;3.88;2.50;;;;;;;;;;4974801;28;20031;-71
